Terminal Aerodrome Forecast
Issued by NWS Topeka, KS

Home | Current Version | Previous Version | Graphics & Text | Print | Product List | Glossary On
Versions: 1 2 3 4 5 6 7 8 9 10 11 12
000
FTUS43 KTOP 221100
TAFTOP
TAF
KTOP 221120Z 2212/2312 16010KT 6SM -RA BR OVC006
      TEMPO 2216/2220 2SM RA BR SCT005 OVC011
     FM222000 28011KT P6SM SCT020 OVC035=

USA.gov is the U.S. government's official web portal to all federal, state and local government web resources and services.